Terminal Aerodrome Forecast
Issued by NWS Wakefield, VA

Current Version | Previous Version | Text Only | Print | Product List | Glossary On
Versions: 1 2 3 4 5 6 7 8 9 10 11 12 13 14
000
FTUS41 KAKQ 302300
TAFSBY
TAF
KSBY 302337Z 3100/3124 16004KT P6SM BKN250
     FM310500 18003KT 4SM BR BKN030
     FM310700 20003KT 3SM BR BKN008
     FM311200 22006KT 4SM BR SCT010 BKN250
     FM311600 24010G15KT P6SM SCT040 BKN250=

USA.gov is the U.S. government's official web portal to all federal, state and local government web resources and services.